sensor_id;sensor_type;location;lat;lon;timestamp;pressure;altitude;pressure_sealevel;temperature;humidity
21706;BME280;11014;53.076;18.208;2023-07-29T00:02:19;100567.97;;;18.75;59.29
21706;BME280;11014;53.076;18.208;2023-07-29T00:04:49;100571.25;;;18.72;59.36
21706;BME280;11014;53.076;18.208;2023-07-29T00:07:18;100569.63;;;18.71;59.30
21706;BME280;11014;53.076;18.208;2023-07-29T00:09:46;100574.81;;;18.68;59.18
21706;BME280;11014;53.076;18.208;2023-07-29T00:12:15;100574.56;;;18.64;59.16
21706;BME280;11014;53.076;18.208;2023-07-29T00:14:43;100571.34;;;18.62;59.40
21706;BME280;11014;53.076;18.208;2023-07-29T00:17:12;100574.06;;;18.62;59.17
21706;BME280;11014;53.076;18.208;2023-07-29T00:19:41;100577.34;;;18.59;59.35
21706;BME280;11014;53.076;18.208;2023-07-29T00:22:10;100572.47;;;18.56;59.17
21706;BME280;11014;53.076;18.208;2023-07-29T00:24:39;100569.78;;;18.51;59.48
21706;BME280;11014;53.076;18.208;2023-07-29T00:27:07;100578.78;;;18.47;59.57
21706;BME280;11014;53.076;18.208;2023-07-29T00:29:36;100580.72;;;18.41;59.65
21706;BME280;11014;53.076;18.208;2023-07-29T00:32:04;100577.22;;;18.35;59.69
21706;BME280;11014;53.076;18.208;2023-07-29T00:34:33;100571.00;;;18.30;59.60
21706;BME280;11014;53.076;18.208;2023-07-29T00:37:02;100578.91;;;18.26;59.87
21706;BME280;11014;53.076;18.208;2023-07-29T00:39:32;100586.00;;;18.22;59.88
21706;BME280;11014;53.076;18.208;2023-07-29T00:42:00;100586.28;;;18.21;59.91
21706;BME280;11014;53.076;18.208;2023-07-29T00:44:29;100586.03;;;18.17;59.89
21706;BME280;11014;53.076;18.208;2023-07-29T00:47:02;100589.59;;;18.13;59.78
21706;BME280;11014;53.076;18.208;2023-07-29T00:49:30;100590.72;;;18.07;59.93
21706;BME280;11014;53.076;18.208;2023-07-29T00:52:00;100586.94;;;18.03;59.88
21706;BME280;11014;53.076;18.208;2023-07-29T00:54:28;100590.22;;;18.00;60.29
21706;BME280;11014;53.076;18.208;2023-07-29T00:56:57;100591.34;;;17.94;60.30
21706;BME280;11014;53.076;18.208;2023-07-29T00:59:26;100583.22;;;17.89;60.05
21706;BME280;11014;53.076;18.208;2023-07-29T01:01:58;100586.50;;;17.86;60.32
21706;BME280;11014;53.076;18.208;2023-07-29T01:04:27;100585.13;;;17.83;60.19
21706;BME280;11014;53.076;18.208;2023-07-29T01:07:03;100586.25;;;17.77;60.40
21706;BME280;11014;53.076;18.208;2023-07-29T01:09:38;100590.88;;;17.71;60.39
21706;BME280;11014;53.076;18.208;2023-07-29T01:12:20;100587.13;;;17.67;60.37
21706;BME280;11014;53.076;18.208;2023-07-29T01:15:20;100587.13;;;17.67;60.36
21706;BME280;11014;53.076;18.208;2023-07-29T01:17:56;100585.47;;;17.66;60.33
21706;BME280;11014;53.076;18.208;2023-07-29T01:20:27;100581.69;;;17.67;60.23
21706;BME280;11014;53.076;18.208;2023-07-29T01:22:56;100582.25;;;17.64;60.42
21706;BME280;11014;53.076;18.208;2023-07-29T01:25:24;100576.84;;;17.59;60.44
21706;BME280;11014;53.076;18.208;2023-07-29T01:27:53;100578.16;;;17.57;60.34
21706;BME280;11014;53.076;18.208;2023-07-29T01:30:22;100578.47;;;17.55;60.38
21706;BME280;11014;53.076;18.208;2023-07-29T01:38:15;100568.16;;;17.42;60.54
21706;BME280;11014;53.076;18.208;2023-07-29T01:40:45;100568.97;;;17.38;60.75
21706;BME280;11014;53.076;18.208;2023-07-29T01:43:14;100567.06;;;17.38;60.90
21706;BME280;11014;53.076;18.208;2023-07-29T01:45:42;100561.66;;;17.38;60.87
21706;BME280;11014;53.076;18.208;2023-07-29T01:48:11;100560.03;;;17.37;60.88
21706;BME280;11014;53.076;18.208;2023-07-29T01:50:39;100568.22;;;17.32;60.61
21706;BME280;11014;53.076;18.208;2023-07-29T01:53:08;100576.09;;;17.24;60.96
21706;BME280;11014;53.076;18.208;2023-07-29T01:55:38;100568.75;;;17.19;61.11
21706;BME280;11014;53.076;18.208;2023-07-29T01:58:07;100584.22;;;17.18;60.91
21706;BME280;11014;53.076;18.208;2023-07-29T02:00:41;100585.03;;;17.19;61.04
21706;BME280;11014;53.076;18.208;2023-07-29T02:03:10;100585.59;;;17.16;60.75
21706;BME280;11014;53.076;18.208;2023-07-29T02:05:39;100578.03;;;17.13;60.81
21706;BME280;11014;53.076;18.208;2023-07-29T02:08:09;100587.50;;;17.10;60.73
21706;BME280;11014;53.076;18.208;2023-07-29T02:10:38;100585.06;;;17.09;60.71
21706;BME280;11014;53.076;18.208;2023-07-29T02:13:08;100592.69;;;17.07;61.01
21706;BME280;11014;53.076;18.208;2023-07-29T02:15:40;100594.84;;;17.00;61.26
21706;BME280;11014;53.076;18.208;2023-07-29T02:18:09;100595.41;;;16.92;61.15
21706;BME280;11014;53.076;18.208;2023-07-29T02:20:37;100600.56;;;16.88;61.23
21706;BME280;11014;53.076;18.208;2023-07-29T02:23:06;100597.06;;;16.83;61.23
21706;BME280;11014;53.076;18.208;2023-07-29T02:25:35;100595.13;;;16.78;61.25
21706;BME280;11014;53.076;18.208;2023-07-29T02:28:05;100599.75;;;16.78;61.08
21706;BME280;11014;53.076;18.208;2023-07-29T02:30:33;100585.66;;;16.76;61.18
21706;BME280;11014;53.076;18.208;2023-07-29T02:33:01;100597.84;;;16.63;61.41
21706;BME280;11014;53.076;18.208;2023-07-29T02:35:30;100598.09;;;16.67;61.30
21706;BME280;11014;53.076;18.208;2023-07-29T02:37:58;100600.28;;;16.65;61.28
21706;BME280;11014;53.076;18.208;2023-07-29T02:40:27;100606.25;;;16.62;61.42
21706;BME280;11014;53.076;18.208;2023-07-29T02:42:57;100605.16;;;16.52;61.50
21706;BME280;11014;53.076;18.208;2023-07-29T02:45:26;100605.41;;;16.46;62.22
21706;BME280;11014;53.076;18.208;2023-07-29T02:47:55;100610.28;;;16.44;62.16
21706;BME280;11014;53.076;18.208;2023-07-29T02:50:23;100617.06;;;16.41;62.04
21706;BME280;11014;53.076;18.208;2023-07-29T02:52:52;100609.19;;;16.40;61.94
21706;BME280;11014;53.076;18.208;2023-07-29T02:55:20;100612.72;;;16.40;61.75
21706;BME280;11014;53.076;18.208;2023-07-29T02:57:49;100607.56;;;16.39;61.95
21706;BME280;11014;53.076;18.208;2023-07-29T03:00:19;100619.75;;;16.36;61.83
21706;BME280;11014;53.076;18.208;2023-07-29T03:02:48;100617.31;;;16.35;61.52
21706;BME280;11014;53.076;18.208;2023-07-29T03:05:17;100615.94;;;16.37;61.71
21706;BME280;11014;53.076;18.208;2023-07-29T03:07:45;100631.41;;;16.37;61.56
21706;BME280;11014;53.076;18.208;2023-07-29T03:10:14;100625.19;;;16.36;61.42
21706;BME280;11014;53.076;18.208;2023-07-29T03:12:43;100632.75;;;16.34;61.63
21706;BME280;11014;53.076;18.208;2023-07-29T03:15:12;100634.94;;;16.32;61.92
21706;BME280;11014;53.076;18.208;2023-07-29T03:17:40;100635.47;;;16.29;61.77
21706;BME280;11014;53.076;18.208;2023-07-29T03:20:09;100636.81;;;16.32;61.69
21706;BME280;11014;53.076;18.208;2023-07-29T03:22:38;100635.47;;;16.34;61.68
21706;BME280;11014;53.076;18.208;2023-07-29T03:25:06;100627.91;;;16.36;61.78
21706;BME280;11014;53.076;18.208;2023-07-29T03:27:35;100623.25;;;16.37;61.51
21706;BME280;11014;53.076;18.208;2023-07-29T03:30:05;100618.13;;;16.35;61.55
21706;BME280;11014;53.076;18.208;2023-07-29T03:32:33;100619.19;;;16.34;61.46
21706;BME280;11014;53.076;18.208;2023-07-29T03:35:02;100616.50;;;16.34;61.48
21706;BME280;11014;53.076;18.208;2023-07-29T03:37:30;100628.97;;;16.35;61.73
21706;BME280;11014;53.076;18.208;2023-07-29T03:39:59;100635.22;;;16.36;61.55
21706;BME280;11014;53.076;18.208;2023-07-29T03:42:30;100628.44;;;16.38;61.59
21706;BME280;11014;53.076;18.208;2023-07-29T03:44:59;100623.56;;;16.40;61.67
21706;BME280;11014;53.076;18.208;2023-07-29T03:47:27;100619.50;;;16.43;61.67
21706;BME280;11014;53.076;18.208;2023-07-29T03:49:58;100622.47;;;16.46;61.80
21706;BME280;11014;53.076;18.208;2023-07-29T03:52:26;100621.94;;;16.49;61.62
21706;BME280;11014;53.076;18.208;2023-07-29T03:54:55;100626.34;;;16.55;61.62
21706;BME280;11014;53.076;18.208;2023-07-29T03:57:24;100630.13;;;16.59;61.74
21706;BME280;11014;53.076;18.208;2023-07-29T03:59:54;100627.41;;;16.65;61.76
21706;BME280;11014;53.076;18.208;2023-07-29T04:02:22;100628.50;;;16.69;61.56
21706;BME280;11014;53.076;18.208;2023-07-29T04:04:51;100632.56;;;16.71;61.91
21706;BME280;11014;53.076;18.208;2023-07-29T04:07:20;100635.56;;;16.75;62.37
21706;BME280;11014;53.076;18.208;2023-07-29T04:09:48;100631.22;;;16.79;62.22
21706;BME280;11014;53.076;18.208;2023-07-29T04:12:17;100639.34;;;16.84;62.49
21706;BME280;11014;53.076;18.208;2023-07-29T04:14:49;100652.13;;;16.88;63.16
21706;BME280;11014;53.076;18.208;2023-07-29T04:17:22;100656.72;;;16.93;64.01
21706;BME280;11014;53.076;18.208;2023-07-29T04:19:51;100663.22;;;16.97;64.95
21706;BME280;11014;53.076;18.208;2023-07-29T04:22:21;100655.09;;;17.02;64.31
21706;BME280;11014;53.076;18.208;2023-07-29T04:24:53;100662.41;;;17.11;63.75
21706;BME280;11014;53.076;18.208;2023-07-29T04:27:21;100659.44;;;17.18;63.36
21706;BME280;11014;53.076;18.208;2023-07-29T04:29:50;100663.75;;;17.24;63.79
21706;BME280;11014;53.076;18.208;2023-07-29T04:32:18;100659.69;;;17.32;63.31
21706;BME280;11014;53.076;18.208;2023-07-29T04:34:47;100668.09;;;17.40;63.44
21706;BME280;11014;53.076;18.208;2023-07-29T04:37:16;100664.53;;;17.50;63.17
21706;BME280;11014;53.076;18.208;2023-07-29T04:39:44;100664.81;;;17.58;63.21
21706;BME280;11014;53.076;18.208;2023-07-29T04:42:13;100654.47;;;17.65;63.35
21706;BME280;11014;53.076;18.208;2023-07-29T04:44:42;100662.06;;;17.73;63.10
21706;BME280;11014;53.076;18.208;2023-07-29T04:47:11;100672.09;;;17.83;63.11
21706;BME280;11014;53.076;18.208;2023-07-29T04:49:40;100671.22;;;17.93;63.00
21706;BME280;11014;53.076;18.208;2023-07-29T04:52:09;100671.22;;;18.03;63.02
21706;BME280;11014;53.076;18.208;2023-07-29T04:54:38;100674.94;;;18.12;63.33
21706;BME280;11014;53.076;18.208;2023-07-29T04:57:06;100663.22;;;18.21;63.18
21706;BME280;11014;53.076;18.208;2023-07-29T04:59:35;100664.00;;;18.32;63.13
21706;BME280;11014;53.076;18.208;2023-07-29T05:02:04;100671.00;;;18.43;62.92
21706;BME280;11014;53.076;18.208;2023-07-29T05:04:33;100675.31;;;18.54;63.57
21706;BME280;11014;53.076;18.208;2023-07-29T05:07:01;100674.97;;;18.66;62.94
21706;BME280;11014;53.076;18.208;2023-07-29T05:09:30;100674.91;;;18.76;63.95
21706;BME280;11014;53.076;18.208;2023-07-29T05:11:59;100679.16;;;18.87;63.31
21706;BME280;11014;53.076;18.208;2023-07-29T05:14:28;100671.75;;;18.98;63.30
21706;BME280;11014;53.076;18.208;2023-07-29T05:16:57;100667.84;;;19.09;63.39
21706;BME280;11014;53.076;18.208;2023-07-29T05:19:25;100673.19;;;19.19;63.62
21706;BME280;11014;53.076;18.208;2023-07-29T05:21:53;100676.63;;;19.29;63.78
21706;BME280;11014;53.076;18.208;2023-07-29T05:24:22;100668.41;;;19.39;63.35
21706;BME280;11014;53.076;18.208;2023-07-29T05:26:51;100669.94;;;19.50;63.42
21706;BME280;11014;53.076;18.208;2023-07-29T05:29:20;100672.22;;;19.62;63.24
21706;BME280;11014;53.076;18.208;2023-07-29T05:31:49;100672.16;;;19.72;63.66
21706;BME280;11014;53.076;18.208;2023-07-29T05:34:17;100675.25;;;19.84;63.08
21706;BME280;11014;53.076;18.208;2023-07-29T05:36:46;100670.81;;;19.93;64.34
21706;BME280;11014;53.076;18.208;2023-07-29T05:39:15;100675.03;;;20.04;64.24
21706;BME280;11014;53.076;18.208;2023-07-29T05:41:43;100672.69;;;20.17;63.39
21706;BME280;11014;53.076;18.208;2023-07-29T05:44:12;100677.47;;;20.30;63.35
21706;BME280;11014;53.076;18.208;2023-07-29T05:46:40;100676.72;;;20.43;63.24
21706;BME280;11014;53.076;18.208;2023-07-29T05:49:09;100675.19;;;20.55;63.59
21706;BME280;11014;53.076;18.208;2023-07-29T05:51:38;100676.66;;;20.66;63.90
21706;BME280;11014;53.076;18.208;2023-07-29T05:54:07;100668.84;;;20.79;64.65
21706;BME280;11014;53.076;18.208;2023-07-29T05:56:36;100672.72;;;20.91;63.76
21706;BME280;11014;53.076;18.208;2023-07-29T05:59:04;100665.69;;;21.04;63.58
21706;BME280;11014;53.076;18.208;2023-07-29T06:01:33;100664.97;;;21.17;63.21
21706;BME280;11014;53.076;18.208;2023-07-29T06:04:01;100655.66;;;21.32;62.94
21706;BME280;11014;53.076;18.208;2023-07-29T06:06:30;100667.44;;;21.46;63.05
21706;BME280;11014;53.076;18.208;2023-07-29T06:09:00;100668.59;;;21.58;62.62
21706;BME280;11014;53.076;18.208;2023-07-29T06:11:28;100668.28;;;21.73;62.98
21706;BME280;11014;53.076;18.208;2023-07-29T06:13:57;100677.00;;;21.89;62.65
21706;BME280;11014;53.076;18.208;2023-07-29T06:16:25;100676.19;;;22.02;62.48
21706;BME280;11014;53.076;18.208;2023-07-29T06:18:54;100674.38;;;22.11;62.39
21706;BME280;11014;53.076;18.208;2023-07-29T06:21:22;100680.16;;;22.23;62.08
21706;BME280;11014;53.076;18.208;2023-07-29T06:23:51;100671.72;;;22.33;62.02
21706;BME280;11014;53.076;18.208;2023-07-29T06:26:19;100676.34;;;22.47;61.93
21706;BME280;11014;53.076;18.208;2023-07-29T06:28:51;100669.50;;;22.58;61.58
21706;BME280;11014;53.076;18.208;2023-07-29T06:31:19;100673.66;;;22.69;61.27
21706;BME280;11014;53.076;18.208;2023-07-29T06:33:48;100675.06;;;22.80;61.36
21706;BME280;11014;53.076;18.208;2023-07-29T06:36:17;100669.84;;;22.92;61.01
21706;BME280;11014;53.076;18.208;2023-07-29T06:38:46;100673.94;;;23.03;61.05
21706;BME280;11014;53.076;18.208;2023-07-29T06:41:15;100689.50;;;23.16;60.70
21706;BME280;11014;53.076;18.208;2023-07-29T06:43:50;100681.34;;;23.25;60.60
21706;BME280;11014;53.076;18.208;2023-07-29T06:46:18;100681.88;;;23.35;60.43
21706;BME280;11014;53.076;18.208;2023-07-29T06:48:47;100672.94;;;23.43;60.15
21706;BME280;11014;53.076;18.208;2023-07-29T06:51:15;100678.94;;;23.54;60.20
21706;BME280;11014;53.076;18.208;2023-07-29T06:54:03;100681.13;;;23.66;59.83
21706;BME280;11014;53.076;18.208;2023-07-29T06:56:32;100675.00;;;23.77;59.68
21706;BME280;11014;53.076;18.208;2023-07-29T06:59:01;100676.19;;;23.85;59.63
21706;BME280;11014;53.076;18.208;2023-07-29T07:01:30;100675.91;;;23.95;58.88
21706;BME280;11014;53.076;18.208;2023-07-29T07:04:00;100675.28;;;24.06;59.07
21706;BME280;11014;53.076;18.208;2023-07-29T07:06:30;100668.06;;;24.19;59.00
21706;BME280;11014;53.076;18.208;2023-07-29T07:09:02;100674.88;;;24.30;58.83
21706;BME280;11014;53.076;18.208;2023-07-29T07:11:31;100676.81;;;24.38;58.49
21706;BME280;11014;53.076;18.208;2023-07-29T07:14:02;100678.94;;;24.50;58.32
21706;BME280;11014;53.076;18.208;2023-07-29T07:16:32;100667.47;;;24.56;57.08
21706;BME280;11014;53.076;18.208;2023-07-29T07:19:02;100669.44;;;24.64;57.51
21706;BME280;11014;53.076;18.208;2023-07-29T07:21:31;100667.47;;;24.73;57.18
21706;BME280;11014;53.076;18.208;2023-07-29T07:24:01;100669.44;;;24.82;56.15
21706;BME280;11014;53.076;18.208;2023-07-29T07:26:29;100659.09;;;24.87;56.26
21706;BME280;11014;53.076;18.208;2023-07-29T07:28:58;100665.41;;;24.96;56.04
21706;BME280;11014;53.076;18.208;2023-07-29T07:37:45;100656.94;;;25.27;52.39
21706;BME280;11014;53.076;18.208;2023-07-29T07:40:14;100654.00;;;25.41;53.26
21706;BME280;11014;53.076;18.208;2023-07-29T07:42:45;100652.19;;;25.53;53.55
21706;BME280;11014;53.076;18.208;2023-07-29T07:45:14;100646.31;;;25.63;51.22
21706;BME280;11014;53.076;18.208;2023-07-29T07:47:46;100652.94;;;25.71;50.76
21706;BME280;11014;53.076;18.208;2023-07-29T07:53:14;100646.66;;;25.91;50.10
21706;BME280;11014;53.076;18.208;2023-07-29T07:55:43;100643.97;;;25.82;48.00
21706;BME280;11014;53.076;18.208;2023-07-29T07:58:14;100641.13;;;26.00;49.34
21706;BME280;11014;53.076;18.208;2023-07-29T08:00:42;100637.97;;;26.10;48.80
21706;BME280;11014;53.076;18.208;2023-07-29T08:03:11;100636.00;;;26.19;49.00
21706;BME280;11014;53.076;18.208;2023-07-29T08:05:41;100638.84;;;26.31;48.43
21706;BME280;11014;53.076;18.208;2023-07-29T08:08:27;100639.72;;;26.43;48.73
21706;BME280;11014;53.076;18.208;2023-07-29T08:10:58;100632.53;;;26.51;48.11
21706;BME280;11014;53.076;18.208;2023-07-29T08:13:26;100627.56;;;26.65;48.52
21706;BME280;11014;53.076;18.208;2023-07-29T08:16:02;100630.38;;;26.77;47.36
21706;BME280;11014;53.076;18.208;2023-07-29T08:18:33;100627.00;;;26.92;47.98
21706;BME280;11014;53.076;18.208;2023-07-29T08:24:33;100637.59;;;27.02;45.72
21706;BME280;11014;53.076;18.208;2023-07-29T08:27:05;100626.84;;;27.10;47.12
21706;BME280;11014;53.076;18.208;2023-07-29T08:30:12;100619.38;;;27.22;47.01
21706;BME280;11014;53.076;18.208;2023-07-29T08:33:08;100627.34;;;27.36;45.75
21706;BME280;11014;53.076;18.208;2023-07-29T08:39:10;100620.94;;;27.68;44.24
21706;BME280;11014;53.076;18.208;2023-07-29T08:42:04;100617.06;;;27.81;45.27
21706;BME280;11014;53.076;18.208;2023-07-29T08:57:49;100599.25;;;28.43;43.83
21706;BME280;11014;53.076;18.208;2023-07-29T09:00:52;100600.72;;;28.52;43.90
21706;BME280;11014;53.076;18.208;2023-07-29T09:04:13;100599.00;;;28.48;42.54
21706;BME280;11014;53.076;18.208;2023-07-29T09:07:37;100598.28;;;28.51;41.98
21706;BME280;11014;53.076;18.208;2023-07-29T09:10:09;100595.84;;;28.61;41.32
21706;BME280;11014;53.076;18.208;2023-07-29T09:12:41;100598.03;;;28.68;40.54
21706;BME280;11014;53.076;18.208;2023-07-29T09:15:10;100596.63;;;28.74;39.84
21706;BME280;11014;53.076;18.208;2023-07-29T09:17:38;100592.69;;;28.75;41.05
21706;BME280;11014;53.076;18.208;2023-07-29T09:20:09;100590.19;;;28.70;40.27
21706;BME280;11014;53.076;18.208;2023-07-29T09:22:38;100587.16;;;28.75;40.83
21706;BME280;11014;53.076;18.208;2023-07-29T09:25:07;100582.72;;;28.86;40.64
21706;BME280;11014;53.076;18.208;2023-07-29T09:27:35;100583.38;;;28.95;39.95
21706;BME280;11014;53.076;18.208;2023-07-29T09:30:15;100581.16;;;29.16;40.96
21706;BME280;11014;53.076;18.208;2023-07-29T09:32:43;100578.44;;;29.32;40.95
21706;BME280;11014;53.076;18.208;2023-07-29T09:35:32;100582.31;;;29.15;39.59
21706;BME280;11014;53.076;18.208;2023-07-29T09:38:01;100581.03;;;29.25;39.91
21706;BME280;11014;53.076;18.208;2023-07-29T09:40:39;100583.78;;;29.25;40.07
21706;BME280;11014;53.076;18.208;2023-07-29T09:43:09;100579.56;;;29.15;39.86
21706;BME280;11014;53.076;18.208;2023-07-29T09:45:37;100577.31;;;29.05;39.80
21706;BME280;11014;53.076;18.208;2023-07-29T09:48:06;100582.50;;;29.07;40.42
21706;BME280;11014;53.076;18.208;2023-07-29T09:50:38;100582.78;;;29.17;40.31
21706;BME280;11014;53.076;18.208;2023-07-29T09:53:06;100580.66;;;29.26;40.19
21706;BME280;11014;53.076;18.208;2023-07-29T09:55:35;100575.50;;;29.41;40.04
21706;BME280;11014;53.076;18.208;2023-07-29T09:58:03;100567.63;;;29.58;39.49
21706;BME280;11014;53.076;18.208;2023-07-29T10:00:36;100568.22;;;29.67;39.49
21706;BME280;11014;53.076;18.208;2023-07-29T10:03:06;100575.97;;;29.93;39.38
21706;BME280;11014;53.076;18.208;2023-07-29T10:05:36;100568.28;;;30.02;38.60
21706;BME280;11014;53.076;18.208;2023-07-29T10:08:04;100564.34;;;30.22;38.92
21706;BME280;11014;53.076;18.208;2023-07-29T10:10:34;100568.34;;;30.40;38.27
21706;BME280;11014;53.076;18.208;2023-07-29T10:13:02;100570.91;;;30.49;38.12
21706;BME280;11014;53.076;18.208;2023-07-29T10:15:31;100575.94;;;30.63;39.23
21706;BME280;11014;53.076;18.208;2023-07-29T10:18:01;100565.16;;;30.80;38.59
21706;BME280;11014;53.076;18.208;2023-07-29T10:20:30;100568.50;;;30.89;38.20
21706;BME280;11014;53.076;18.208;2023-07-29T10:22:59;100571.41;;;30.74;36.77
21706;BME280;11014;53.076;18.208;2023-07-29T10:25:32;100563.81;;;30.51;37.43
21706;BME280;11014;53.076;18.208;2023-07-29T10:28:06;100562.63;;;30.52;37.83
21706;BME280;11014;53.076;18.208;2023-07-29T10:30:34;100543.00;;;30.61;37.20
21706;BME280;11014;53.076;18.208;2023-07-29T10:33:03;100535.03;;;30.79;37.23
21706;BME280;11014;53.076;18.208;2023-07-29T10:35:33;100521.88;;;30.95;37.57
21706;BME280;11014;53.076;18.208;2023-07-29T10:38:02;100545.63;;;30.92;37.23
21706;BME280;11014;53.076;18.208;2023-07-29T10:40:53;100538.53;;;30.95;36.47
21706;BME280;11014;53.076;18.208;2023-07-29T10:46:16;100537.78;;;30.98;36.76
21706;BME280;11014;53.076;18.208;2023-07-29T10:51:30;100533.84;;;31.22;37.07
21706;BME280;11014;53.076;18.208;2023-07-29T10:54:01;100533.69;;;31.37;37.03
21706;BME280;11014;53.076;18.208;2023-07-29T10:56:34;100529.56;;;31.50;36.30
21706;BME280;11014;53.076;18.208;2023-07-29T11:01:50;100533.19;;;31.81;34.52
21706;BME280;11014;53.076;18.208;2023-07-29T11:07:08;100516.34;;;31.96;35.67
21706;BME280;11014;53.076;18.208;2023-07-29T11:09:51;100513.56;;;32.26;35.75
21706;BME280;11014;53.076;18.208;2023-07-29T11:17:41;100501.72;;;32.62;34.58
21706;BME280;11014;53.076;18.208;2023-07-29T11:20:10;100485.50;;;32.71;35.61
21706;BME280;11014;53.076;18.208;2023-07-29T11:22:39;100480.88;;;32.86;35.65
21706;BME280;11014;53.076;18.208;2023-07-29T11:25:10;100486.47;;;32.93;34.65
21706;BME280;11014;53.076;18.208;2023-07-29T11:27:39;100479.78;;;32.98;34.53
21706;BME280;11014;53.076;18.208;2023-07-29T11:30:08;100480.66;;;33.05;34.60
21706;BME280;11014;53.076;18.208;2023-07-29T11:32:38;100478.69;;;33.06;34.44
21706;BME280;11014;53.076;18.208;2023-07-29T11:35:07;100467.03;;;32.97;33.80
21706;BME280;11014;53.076;18.208;2023-07-29T11:37:36;100478.59;;;32.99;33.72
21706;BME280;11014;53.076;18.208;2023-07-29T11:40:06;100469.78;;;32.93;34.15
21706;BME280;11014;53.076;18.208;2023-07-29T11:42:35;100460.75;;;33.03;34.63
21706;BME280;11014;53.076;18.208;2023-07-29T11:45:03;100467.72;;;33.27;35.02
21706;BME280;11014;53.076;18.208;2023-07-29T11:47:34;100459.47;;;33.41;34.26
21706;BME280;11014;53.076;18.208;2023-07-29T11:50:05;100458.19;;;33.28;32.54
21706;BME280;11014;53.076;18.208;2023-07-29T11:52:34;100449.03;;;33.31;33.18
21706;BME280;11014;53.076;18.208;2023-07-29T11:55:04;100450.59;;;33.25;33.81
21706;BME280;11014;53.076;18.208;2023-07-29T11:57:33;100440.19;;;33.15;32.87
21706;BME280;11014;53.076;18.208;2023-07-29T12:00:06;100451.78;;;33.24;33.26
21706;BME280;11014;53.076;18.208;2023-07-29T12:02:38;100447.94;;;33.46;33.13
21706;BME280;11014;53.076;18.208;2023-07-29T12:05:08;100436.44;;;33.51;33.31
21706;BME280;11014;53.076;18.208;2023-07-29T12:07:41;100436.91;;;33.60;33.23
21706;BME280;11014;53.076;18.208;2023-07-29T12:10:10;100430.91;;;33.58;33.39
21706;BME280;11014;53.076;18.208;2023-07-29T12:12:45;100431.41;;;33.71;32.76
21706;BME280;11014;53.076;18.208;2023-07-29T12:15:24;100426.03;;;33.41;32.41
21706;BME280;11014;53.076;18.208;2023-07-29T12:17:53;100424.84;;;33.42;32.80
21706;BME280;11014;53.076;18.208;2023-07-29T12:20:23;100413.53;;;33.17;33.12
21706;BME280;11014;53.076;18.208;2023-07-29T12:22:55;100409.63;;;33.22;33.19
21706;BME280;11014;53.076;18.208;2023-07-29T12:25:23;100403.25;;;33.21;33.34
21706;BME280;11014;53.076;18.208;2023-07-29T12:27:52;100405.75;;;33.40;33.33
21706;BME280;11014;53.076;18.208;2023-07-29T12:30:24;100400.03;;;33.91;32.48
21706;BME280;11014;53.076;18.208;2023-07-29T12:32:55;100396.63;;;34.65;32.46
21706;BME280;11014;53.076;18.208;2023-07-29T12:35:23;100399.72;;;35.45;31.67
21706;BME280;11014;53.076;18.208;2023-07-29T12:37:58;100401.22;;;35.85;31.01
21706;BME280;11014;53.076;18.208;2023-07-29T12:40:26;100387.63;;;35.87;30.70
21706;BME280;11014;53.076;18.208;2023-07-29T12:42:56;100397.31;;;35.61;29.74
21706;BME280;11014;53.076;18.208;2023-07-29T12:45:24;100396.56;;;35.36;30.77
21706;BME280;11014;53.076;18.208;2023-07-29T12:47:55;100390.09;;;35.71;30.64
21706;BME280;11014;53.076;18.208;2023-07-29T12:50:26;100376.72;;;36.13;31.03
21706;BME280;11014;53.076;18.208;2023-07-29T12:52:55;100359.09;;;36.75;29.25
21706;BME280;11014;53.076;18.208;2023-07-29T12:55:23;100366.13;;;36.90;29.37
21706;BME280;11014;53.076;18.208;2023-07-29T12:57:51;100374.03;;;37.73;27.76
21706;BME280;11014;53.076;18.208;2023-07-29T13:00:19;100365.28;;;38.75;28.72
21706;BME280;11014;53.076;18.208;2023-07-29T13:02:48;100360.41;;;39.02;27.46
21706;BME280;11014;53.076;18.208;2023-07-29T13:05:17;100366.59;;;39.36;27.87
21706;BME280;11014;53.076;18.208;2023-07-29T13:07:45;100359.16;;;39.46;28.04
21706;BME280;11014;53.076;18.208;2023-07-29T13:10:13;100367.69;;;39.42;26.53
21706;BME280;11014;53.076;18.208;2023-07-29T13:12:45;100350.31;;;39.47;28.09
21706;BME280;11014;53.076;18.208;2023-07-29T13:15:13;100348.75;;;40.02;27.02
21706;BME280;11014;53.076;18.208;2023-07-29T13:17:42;100343.50;;;39.84;25.52
21706;BME280;11014;53.076;18.208;2023-07-29T13:20:10;100342.13;;;39.13;25.46
21706;BME280;11014;53.076;18.208;2023-07-29T13:22:38;100335.28;;;38.72;25.46
21706;BME280;11014;53.076;18.208;2023-07-29T13:25:07;100333.28;;;38.22;26.18
21706;BME280;11014;53.076;18.208;2023-07-29T13:27:35;100330.03;;;38.50;25.95
21706;BME280;11014;53.076;18.208;2023-07-29T13:30:04;100333.97;;;39.42;26.28
21706;BME280;11014;53.076;18.208;2023-07-29T13:32:33;100334.66;;;40.99;24.14
21706;BME280;11014;53.076;18.208;2023-07-29T13:35:01;100328.00;;;41.50;24.38
21706;BME280;11014;53.076;18.208;2023-07-29T13:37:30;100329.06;;;41.81;24.77
21706;BME280;11014;53.076;18.208;2023-07-29T13:39:58;100320.22;;;41.54;24.25
21706;BME280;11014;53.076;18.208;2023-07-29T13:42:30;100318.16;;;40.85;23.41
21706;BME280;11014;53.076;18.208;2023-07-29T13:45:42;100296.09;;;40.67;25.61
21706;BME280;11014;53.076;18.208;2023-07-29T13:48:12;100304.59;;;40.96;24.66
21706;BME280;11014;53.076;18.208;2023-07-29T13:50:41;100306.75;;;40.59;23.93